Time;durP1;ratioP1;P1;durP2;ratioP2;P2;SDS_P1;SDS_P2;PMS_P1;PMS_P2;Temp;Humidity;BMP_temperature;BMP_pressure;BME280_temperature;BME280_humidity;BME280_pressure;Samples;Min_cycle;Max_cycle;Signal;HPM_P1;HPM_P2
2023/02/19 00:01:30;;;;;;;11.30;7.23;;;4.50;99.90;;;;;;5047632;28;20199;-54
2023/02/19 00:04:22;;;;;;;11.23;7.37;;;4.50;99.90;;;;;;5038717;28;20202;-56
2023/02/19 00:06:49;;;;;;;11.17;8.10;;;4.50;99.90;;;;;;5049420;28;20230;-53
2023/02/19 00:09:18;;;;;;;9.10;7.63;;;4.50;99.90;;;;;;5048549;28;20210;-51
2023/02/19 00:11:46;;;;;;;12.27;7.50;;;4.50;99.90;;;;;;5047309;28;20289;-56
2023/02/19 00:14:16;;;;;;;12.53;8.20;;;4.50;99.90;;;;;;5032798;28;20222;-51
2023/02/19 00:16:44;;;;;;;10.30;7.60;;;4.50;99.90;;;;;;5044822;28;20213;-54
2023/02/19 00:19:13;;;;;;;11.47;8.80;;;4.50;99.90;;;;;;5047326;28;20229;-54
2023/02/19 00:21:41;;;;;;;11.67;8.70;;;4.50;99.90;;;;;;5066192;28;20191;-55
2023/02/19 00:24:12;;;;;;;13.50;8.87;;;4.50;99.90;;;;;;5062144;28;20250;-50
2023/02/19 00:26:41;;;;;;;17.47;9.23;;;4.50;99.90;;;;;;5066042;28;20750;-55
2023/02/19 00:29:27;;;;;;;12.40;9.13;;;4.60;99.90;;;;;;5063930;28;20327;-53
2023/02/19 00:31:54;;;;;;;16.00;9.43;;;4.50;99.90;;;;;;5046023;28;20236;-57
2023/02/19 00:34:21;;;;;;;13.17;9.67;;;4.50;99.90;;;;;;5046385;28;20218;-52
2023/02/19 00:36:49;;;;;;;15.53;9.83;;;4.50;99.90;;;;;;5051221;28;20217;-52
2023/02/19 00:39:17;;;;;;;15.97;10.00;;;4.50;99.90;;;;;;5046139;28;20223;-56
2023/02/19 00:41:45;;;;;;;15.07;9.73;;;4.50;99.90;;;;;;5046895;28;20628;-55
2023/02/19 00:44:13;;;;;;;14.17;9.73;;;4.50;99.90;;;;;;5043580;28;20203;-51
2023/02/19 00:46:42;;;;;;;15.07;9.57;;;4.50;99.90;;;;;;5040483;28;20208;-55
2023/02/19 00:49:14;;;;;;;13.60;9.63;;;4.50;99.90;;;;;;5039058;28;20238;-50
2023/02/19 00:51:41;;;;;;;13.47;10.13;;;4.50;99.90;;;;;;5046872;28;20199;-56
2023/02/19 00:54:11;;;;;;;16.57;10.03;;;4.50;99.90;;;;;;5055900;28;20230;-55
2023/02/19 00:56:38;;;;;;;15.43;10.47;;;4.50;99.90;;;;;;5062866;28;20218;-56
2023/02/19 00:59:06;;;;;;;15.80;10.20;;;4.50;99.90;;;;;;5044503;28;20231;-52
2023/02/19 01:01:32;;;;;;;16.80;9.07;;;4.50;99.90;;;;;;5030961;28;20209;-58
2023/02/19 01:03:59;;;;;;;14.80;10.50;;;4.50;99.90;;;;;;5054628;28;20243;-51
2023/02/19 01:06:28;;;;;;;15.90;10.30;;;4.50;99.90;;;;;;5041453;28;20207;-57
2023/02/19 01:08:56;;;;;;;18.33;9.47;;;4.50;99.90;;;;;;5053899;28;20364;-54
2023/02/19 01:11:26;;;;;;;14.73;9.83;;;4.50;99.90;;;;;;5044667;28;20194;-56
2023/02/19 01:13:56;;;;;;;15.23;9.33;;;4.40;99.90;;;;;;5045576;28;20257;-57
2023/02/19 01:16:23;;;;;;;12.40;8.00;;;4.40;99.90;;;;;;5042656;28;20191;-57
2023/02/19 01:19:12;;;;;;;14.93;8.53;;;4.40;99.90;;;;;;5030899;28;20316;-52
2023/02/19 01:21:40;;;;;;;15.33;8.60;;;4.40;99.90;;;;;;5059576;28;20286;-58
2023/02/19 01:24:06;;;;;;;15.70;8.70;;;4.30;99.90;;;;;;5043599;28;20195;-56
2023/02/19 01:26:35;;;;;;;12.03;8.40;;;4.40;99.90;;;;;;5043236;28;20284;-57
2023/02/19 01:29:03;;;;;;;11.73;8.40;;;4.40;99.90;;;;;;5043299;28;20297;-52
2023/02/19 01:31:32;;;;;;;12.90;8.60;;;4.40;99.90;;;;;;5042864;28;20210;-56
2023/02/19 01:34:01;;;;;;;14.13;8.97;;;4.30;99.90;;;;;;5030090;28;20636;-52
2023/02/19 01:36:50;;;;;;;12.53;9.27;;;4.30;99.90;;;;;;5045799;28;20712;-54
2023/02/19 01:39:17;;;;;;;10.80;6.73;;;4.30;99.90;;;;;;5047537;28;20968;-56
2023/02/19 01:41:45;;;;;;;10.73;6.60;;;4.30;99.90;;;;;;5048045;28;20211;-56
2023/02/19 01:44:55;;;;;;;15.07;7.17;;;4.20;99.90;;;;;;5041898;28;20206;-51
2023/02/19 01:47:22;;;;;;;8.97;6.73;;;4.20;99.90;;;;;;4977137;28;20217;-52
2023/02/19 01:49:56;;;;;;;14.53;6.53;;;4.20;99.90;;;;;;5035691;28;20629;-55
2023/02/19 01:52:29;;;;;;;14.17;6.73;;;4.20;99.90;;;;;;5043673;28;20201;-55
2023/02/19 01:54:57;;;;;;;12.13;7.07;;;4.20;99.90;;;;;;5048510;28;20319;-56
2023/02/19 01:57:28;;;;;;;16.50;7.30;;;4.20;99.90;;;;;;5040428;28;20224;-57
2023/02/19 01:59:57;;;;;;;9.57;6.17;;;4.20;99.90;;;;;;5044892;28;20318;-55
2023/02/19 02:02:26;;;;;;;7.13;6.00;;;4.20;99.90;;;;;;5041494;28;20191;-54
2023/02/19 02:04:53;;;;;;;8.07;5.77;;;4.20;99.90;;;;;;5044911;28;20199;-53
2023/02/19 02:10:21;;;;;;;8.10;4.90;;;4.10;99.90;;;;;;5042561;28;20215;-54
2023/02/19 02:12:50;;;;;;;8.93;4.57;;;4.10;99.90;;;;;;5058851;28;20229;-57
2023/02/19 02:15:18;;;;;;;5.03;3.60;;;4.10;99.90;;;;;;5060095;28;20226;-54
2023/02/19 02:17:53;;;;;;;4.23;3.83;;;4.10;99.90;;;;;;5062487;28;20230;-53
2023/02/19 02:20:32;;;;;;;9.30;4.40;;;4.10;99.90;;;;;;5044305;28;20288;-53
2023/02/19 02:23:08;;;;;;;6.53;3.40;;;4.10;99.90;;;;;;5040272;28;20214;-50
2023/02/19 02:25:57;;;;;;;5.90;3.90;;;4.10;99.90;;;;;;5043780;28;20203;-53
2023/02/19 02:28:49;;;;;;;10.40;3.80;;;4.10;99.90;;;;;;5055947;28;20994;-53
2023/02/19 02:31:22;;;;;;;8.50;3.77;;;4.00;99.90;;;;;;5059523;28;20217;-55
2023/02/19 02:33:57;;;;;;;7.77;2.80;;;4.00;99.90;;;;;;5061826;28;20571;-52
2023/02/19 02:36:29;;;;;;;5.93;3.13;;;4.00;99.90;;;;;;5027485;28;20916;-52
2023/02/19 02:38:57;;;;;;;6.70;3.10;;;4.00;99.90;;;;;;5046134;28;20631;-54
2023/02/19 02:41:26;;;;;;;4.93;2.60;;;4.00;99.90;;;;;;5039825;28;20200;-54
2023/02/19 02:43:53;;;;;;;7.13;3.23;;;4.00;99.90;;;;;;5044047;28;20187;-55
2023/02/19 02:46:26;;;;;;;3.83;2.40;;;4.00;99.90;;;;;;5039257;28;20481;-55
2023/02/19 02:48:56;;;;;;;4.43;2.87;;;4.00;99.90;;;;;;5042860;28;20285;-55
2023/02/19 02:51:27;;;;;;;7.07;2.90;;;4.00;99.90;;;;;;5039243;28;20203;-57
2023/02/19 02:56:51;;;;;;;7.47;2.47;;;4.00;99.90;;;;;;5043000;28;20298;-54
2023/02/19 02:59:22;;;;;;;8.77;2.90;;;3.90;99.90;;;;;;5038809;28;20620;-54
2023/02/19 03:02:13;;;;;;;9.97;3.10;;;3.90;99.90;;;;;;5043010;28;20215;-53
2023/02/19 03:07:38;;;;;;;3.73;2.30;;;3.90;99.90;;;;;;5046773;28;20187;-54
2023/02/19 03:10:10;;;;;;;3.20;2.90;;;3.90;99.90;;;;;;5031447;28;20242;-51
2023/02/19 03:21:03;;;;;;;7.20;2.83;;;4.00;99.90;;;;;;5060679;28;20211;-50
2023/02/19 03:26:15;;;;;;;6.57;2.60;;;4.00;99.90;;;;;;4987202;28;20203;-50
2023/02/19 03:31:41;;;;;;;5.80;2.60;;;3.90;99.90;;;;;;5042282;28;20207;-52
2023/02/19 03:34:14;;;;;;;5.13;2.20;;;3.90;99.90;;;;;;5039912;28;20230;-51
2023/02/19 03:36:44;;;;;;;5.53;2.10;;;3.90;99.90;;;;;;5044665;28;20222;-57
2023/02/19 03:39:14;;;;;;;3.53;1.97;;;3.90;99.90;;;;;;5044569;28;20246;-51
2023/02/19 03:41:53;;;;;;;6.60;1.77;;;3.90;99.90;;;;;;5036109;28;20280;-58
2023/02/19 03:44:27;;;;;;;5.97;1.80;;;3.90;99.90;;;;;;5041467;28;20241;-53
2023/02/19 03:47:02;;;;;;;2.33;1.50;;;3.90;99.90;;;;;;5042340;28;20203;-54
2023/02/19 03:49:39;;;;;;;7.90;3.20;;;3.80;99.90;;;;;;5039872;28;20222;-55
2023/02/19 03:52:16;;;;;;;4.07;1.63;;;3.90;99.90;;;;;;5041321;28;20572;-52
2023/02/19 03:54:50;;;;;;;3.87;1.70;;;3.80;99.90;;;;;;5041669;28;20230;-52
2023/02/19 03:57:21;;;;;;;5.53;1.70;;;3.80;99.90;;;;;;5030678;28;20207;-53
2023/02/19 03:59:53;;;;;;;4.80;1.80;;;3.90;99.90;;;;;;5048633;28;20223;-56
2023/02/19 04:02:29;;;;;;;4.67;1.63;;;3.90;99.90;;;;;;5047784;28;20322;-53
2023/02/19 04:05:03;;;;;;;5.30;1.63;;;3.80;99.90;;;;;;5060798;28;20560;-51
2023/02/19 04:07:34;;;;;;;5.47;1.53;;;3.80;99.90;;;;;;5043891;28;20253;-55
2023/02/19 04:10:03;;;;;;;5.50;1.33;;;3.80;99.90;;;;;;5047963;28;20605;-51
2023/02/19 04:12:31;;;;;;;3.80;1.50;;;3.80;99.90;;;;;;5034824;28;20299;-53
2023/02/19 04:15:22;;;;;;;4.73;1.87;;;3.80;99.90;;;;;;5042306;28;20914;-53
2023/02/19 04:17:54;;;;;;;5.37;2.03;;;3.80;99.90;;;;;;5042865;28;20210;-54
2023/02/19 04:20:25;;;;;;;2.83;1.77;;;3.80;99.90;;;;;;5058052;28;20191;-51
2023/02/19 04:22:52;;;;;;;4.70;1.73;;;3.80;99.90;;;;;;5052165;28;20649;-55
2023/02/19 04:25:19;;;;;;;2.77;1.70;;;3.80;99.90;;;;;;5058256;28;20194;-50
2023/02/19 04:27:47;;;;;;;3.47;2.10;;;3.70;99.90;;;;;;5044944;28;20207;-54
2023/02/19 04:30:14;;;;;;;7.83;2.10;;;3.70;99.90;;;;;;5047076;28;20244;-52
2023/02/19 04:32:41;;;;;;;3.23;1.80;;;3.70;99.90;;;;;;5047816;28;20655;-52
2023/02/19 04:35:09;;;;;;;5.80;1.90;;;3.70;99.90;;;;;;5040284;28;20301;-52
2023/02/19 04:37:37;;;;;;;2.63;2.20;;;3.60;99.90;;;;;;5041694;28;20215;-52
2023/02/19 04:40:05;;;;;;;3.63;2.30;;;3.60;99.90;;;;;;5052050;28;20222;-50
2023/02/19 04:42:31;;;;;;;3.93;2.50;;;3.60;99.90;;;;;;5040722;28;20932;-55
2023/02/19 04:44:58;;;;;;;6.07;1.77;;;3.60;99.90;;;;;;5038229;28;20198;-52
2023/02/19 04:47:25;;;;;;;6.67;2.27;;;3.60;99.90;;;;;;5045734;28;20206;-51
2023/02/19 04:49:52;;;;;;;3.30;2.00;;;3.60;99.90;;;;;;5046384;28;20231;-52
2023/02/19 04:52:19;;;;;;;4.73;2.10;;;3.50;99.90;;;;;;5042759;28;20198;-56
2023/02/19 04:54:47;;;;;;;5.80;2.10;;;3.50;99.90;;;;;;5048300;28;20222;-51
2023/02/19 04:57:14;;;;;;;7.37;2.17;;;3.60;99.90;;;;;;5062296;28;20225;-54
2023/02/19 04:59:40;;;;;;;4.73;2.63;;;3.50;99.90;;;;;;5043512;28;20226;-57
2023/02/19 05:02:07;;;;;;;5.10;2.33;;;3.50;99.90;;;;;;5050223;28;20199;-55
2023/02/19 05:04:34;;;;;;;6.73;2.40;;;3.50;99.90;;;;;;5044430;28;20940;-56
2023/02/19 05:07:00;;;;;;;4.63;2.70;;;3.50;99.90;;;;;;5050051;28;20198;-49
2023/02/19 05:09:27;;;;;;;3.83;2.23;;;3.40;99.90;;;;;;5043876;28;20226;-54
2023/02/19 05:11:55;;;;;;;4.23;1.87;;;3.50;99.90;;;;;;5065559;28;20206;-52
2023/02/19 05:14:22;;;;;;;3.57;2.10;;;3.40;99.90;;;;;;5044482;28;20214;-56
2023/02/19 05:16:52;;;;;;;3.27;2.00;;;3.40;99.90;;;;;;5060387;28;20213;-54
2023/02/19 05:19:19;;;;;;;3.47;1.80;;;3.40;99.90;;;;;;5041724;28;20211;-55
2023/02/19 05:21:45;;;;;;;3.93;2.07;;;3.40;99.90;;;;;;5046067;28;20206;-56
2023/02/19 05:24:12;;;;;;;3.07;1.77;;;3.40;99.90;;;;;;5042043;28;20256;-52
2023/02/19 05:26:39;;;;;;;2.67;1.73;;;3.30;99.90;;;;;;5048367;28;20207;-56
2023/02/19 05:29:07;;;;;;;4.00;2.10;;;3.30;99.90;;;;;;5054285;28;20218;-52
2023/02/19 05:31:35;;;;;;;6.30;2.00;;;3.30;99.90;;;;;;5049320;28;20205;-54
2023/02/19 05:34:02;;;;;;;4.17;1.80;;;3.20;99.90;;;;;;5050578;28;20290;-53
2023/02/19 05:36:29;;;;;;;5.97;2.30;;;3.20;99.90;;;;;;5043581;28;20195;-57
2023/02/19 05:38:57;;;;;;;5.17;2.20;;;3.10;99.90;;;;;;5055167;28;20229;-57
2023/02/19 05:41:26;;;;;;;8.13;2.17;;;3.10;99.90;;;;;;5040950;28;20203;-57
2023/02/19 05:43:53;;;;;;;3.40;1.97;;;3.10;99.90;;;;;;5063139;28;20214;-57
2023/02/19 05:46:23;;;;;;;4.10;2.60;;;3.10;99.90;;;;;;5031922;28;20200;-56
2023/02/19 05:48:51;;;;;;;4.17;1.93;;;3.10;99.90;;;;;;5045085;28;20227;-53
2023/02/19 05:51:21;;;;;;;8.13;3.00;;;3.00;99.90;;;;;;5041715;28;20191;-54
2023/02/19 05:53:48;;;;;;;5.10;1.93;;;3.00;99.90;;;;;;5044908;28;20199;-54
2023/02/19 05:56:26;;;;;;;10.37;2.20;;;3.00;99.90;;;;;;5041835;28;20225;-52
2023/02/19 05:58:54;;;;;;;6.17;2.13;;;3.00;99.90;;;;;;5058103;28;20214;-56
2023/02/19 06:01:24;;;;;;;3.97;1.87;;;2.90;99.90;;;;;;5038754;28;20214;-54
2023/02/19 06:03:51;;;;;;;5.10;2.17;;;2.90;99.90;;;;;;5044953;28;20584;-54
2023/02/19 06:06:19;;;;;;;7.87;2.43;;;2.90;99.90;;;;;;5039733;28;20199;-55
2023/02/19 06:09:05;;;;;;;3.00;2.40;;;2.90;99.90;;;;;;5047960;28;20595;-51
2023/02/19 06:11:32;;;;;;;6.20;2.70;;;2.80;99.90;;;;;;5047008;28;20195;-57
2023/02/19 06:13:58;;;;;;;7.90;2.40;;;2.80;99.90;;;;;;5050957;28;20533;-55
2023/02/19 06:16:27;;;;;;;7.13;2.20;;;2.80;99.90;;;;;;5036461;28;20233;-54
2023/02/19 06:18:55;;;;;;;8.23;2.40;;;2.80;99.90;;;;;;5049943;28;20219;-57
2023/02/19 06:21:22;;;;;;;3.40;2.43;;;2.80;99.90;;;;;;5039208;28;20198;-55
2023/02/19 06:23:49;;;;;;;5.80;2.57;;;2.80;99.90;;;;;;5042635;28;20607;-53
2023/02/19 06:26:17;;;;;;;6.83;2.70;;;2.70;99.90;;;;;;5039445;28;20215;-52
2023/02/19 06:28:45;;;;;;;11.90;2.17;;;2.80;99.90;;;;;;5044164;28;20231;-53
2023/02/19 06:31:12;;;;;;;6.43;2.17;;;2.70;99.90;;;;;;5035749;28;20286;-51
2023/02/19 06:33:41;;;;;;;7.47;2.50;;;2.70;99.90;;;;;;5052009;28;20580;-56
2023/02/19 06:36:11;;;;;;;7.57;2.57;;;2.70;99.90;;;;;;5040477;28;20215;-51
2023/02/19 06:38:39;;;;;;;3.00;2.37;;;2.70;99.90;;;;;;5052122;28;20689;-54
2023/02/19 06:41:08;;;;;;;5.70;2.20;;;2.70;99.90;;;;;;5040598;28;20567;-54
2023/02/19 06:43:35;;;;;;;4.27;2.60;;;2.70;99.90;;;;;;5036880;28;20207;-52
2023/02/19 06:46:05;;;;;;;10.50;2.60;;;2.70;99.90;;;;;;5054585;28;20679;-52
2023/02/19 06:48:32;;;;;;;4.47;2.30;;;2.70;99.90;;;;;;5040530;28;20293;-54
2023/02/19 06:51:00;;;;;;;10.37;2.37;;;2.70;99.90;;;;;;5047963;28;20207;-52
2023/02/19 06:53:27;;;;;;;5.57;2.57;;;2.70;99.90;;;;;;5039453;28;20836;-51
2023/02/19 06:55:57;;;;;;;13.73;2.60;;;2.70;99.90;;;;;;5032175;28;20250;-55
2023/02/19 06:58:24;;;;;;;7.10;2.10;;;2.70;99.90;;;;;;5049144;28;20234;-55
2023/02/19 07:00:51;;;;;;;6.13;2.30;;;2.70;99.90;;;;;;5032138;28;20207;-54
2023/02/19 07:03:18;;;;;;;6.20;2.50;;;2.70;99.90;;;;;;5034436;28;20226;-55
2023/02/19 07:05:44;;;;;;;4.77;2.40;;;2.70;99.90;;;;;;5045081;28;20594;-51
2023/02/19 07:08:13;;;;;;;6.13;2.37;;;2.70;99.90;;;;;;5046338;28;20199;-53
2023/02/19 07:10:39;;;;;;;6.90;2.40;;;2.70;99.90;;;;;;5047027;28;20261;-51
2023/02/19 07:13:06;;;;;;;7.07;2.83;;;2.70;99.90;;;;;;5040108;28;20982;-57
2023/02/19 07:15:33;;;;;;;6.63;2.40;;;2.70;99.90;;;;;;5038444;28;20226;-51
2023/02/19 07:18:00;;;;;;;10.73;2.90;;;2.70;99.90;;;;;;5031287;28;20221;-57
2023/02/19 07:20:27;;;;;;;5.17;2.20;;;2.70;99.90;;;;;;5049039;28;20684;-53
2023/02/19 07:22:53;;;;;;;8.40;2.53;;;2.70;99.90;;;;;;5049667;28;20195;-51
2023/02/19 07:25:21;;;;;;;8.13;2.17;;;2.70;99.90;;;;;;5041846;28;20206;-57
2023/02/19 07:27:49;;;;;;;8.83;2.10;;;2.70;99.90;;;;;;5046479;28;20584;-51
2023/02/19 07:30:17;;;;;;;4.47;2.67;;;2.80;99.90;;;;;;5049063;28;20226;-56
2023/02/19 07:32:46;;;;;;;7.43;2.40;;;2.90;99.90;;;;;;5037244;28;20753;-49
2023/02/19 07:35:13;;;;;;;6.30;2.20;;;2.90;99.90;;;;;;5039762;28;20219;-56
2023/02/19 07:37:40;;;;;;;5.67;2.13;;;2.90;99.90;;;;;;5049766;28;20537;-52
2023/02/19 07:40:07;;;;;;;4.33;2.03;;;3.00;99.90;;;;;;5052775;28;21001;-55
2023/02/19 07:42:35;;;;;;;8.23;2.23;;;3.10;99.90;;;;;;5049905;28;20190;-50
2023/02/19 07:45:02;;;;;;;10.47;2.27;;;3.10;99.90;;;;;;5056466;28;20265;-56
2023/02/19 07:47:30;;;;;;;7.97;2.13;;;3.10;99.90;;;;;;5040036;28;20207;-54
2023/02/19 07:49:57;;;;;;;4.97;2.40;;;3.20;99.90;;;;;;5026910;28;20218;-56
2023/02/19 07:52:25;;;;;;;7.93;1.93;;;3.20;99.90;;;;;;5055838;28;20195;-56
2023/02/19 07:54:52;;;;;;;5.03;1.97;;;3.20;99.90;;;;;;5040502;28;20602;-55
2023/02/19 07:57:18;;;;;;;3.73;1.67;;;3.20;99.90;;;;;;5043767;28;20207;-54
2023/02/19 07:59:47;;;;;;;4.83;1.80;;;3.20;99.90;;;;;;5050808;28;20696;-49
2023/02/19 08:05:01;;;;;;;6.27;1.63;;;3.20;99.90;;;;;;5032250;28;20203;-56
2023/02/19 08:07:32;;;;;;;4.20;2.07;;;3.20;99.90;;;;;;5043608;28;20225;-50
2023/02/19 08:15:25;;;;;;;6.10;2.13;;;3.30;99.90;;;;;;5057766;28;20215;-50
2023/02/19 08:17:52;;;;;;;4.07;1.90;;;3.40;99.90;;;;;;5049807;28;20197;-56
2023/02/19 08:20:18;;;;;;;4.53;1.70;;;3.50;99.90;;;;;;5030671;28;20720;-55
2023/02/19 08:22:45;;;;;;;4.00;1.50;;;3.50;99.90;;;;;;5052505;28;21020;-56
2023/02/19 08:25:12;;;;;;;3.80;1.80;;;3.60;99.90;;;;;;5058594;28;20256;-54
2023/02/19 08:27:39;;;;;;;5.53;1.83;;;3.60;99.90;;;;;;5052213;28;20289;-52
2023/02/19 08:30:07;;;;;;;4.30;1.70;;;3.70;99.90;;;;;;5048990;28;20284;-55
2023/02/19 08:32:35;;;;;;;3.23;1.63;;;3.70;99.90;;;;;;5053216;28;20226;-51
2023/02/19 08:35:03;;;;;;;3.23;1.30;;;3.80;99.90;;;;;;5045902;28;20662;-54
2023/02/19 08:37:30;;;;;;;6.70;1.73;;;3.90;99.90;;;;;;5030109;28;20256;-53
2023/02/19 08:39:57;;;;;;;8.20;1.63;;;3.90;99.90;;;;;;5056642;28;20296;-52
2023/02/19 08:42:24;;;;;;;7.97;1.80;;;4.00;99.90;;;;;;5043131;28;20727;-53
2023/02/19 08:44:50;;;;;;;6.83;1.80;;;4.00;99.90;;;;;;5057250;28;20210;-53
2023/02/19 08:47:17;;;;;;;4.57;1.83;;;4.10;99.90;;;;;;5048335;28;20314;-54
2023/02/19 08:49:45;;;;;;;8.33;1.70;;;4.20;99.90;;;;;;5052201;28;20223;-56
2023/02/19 08:52:12;;;;;;;8.30;2.37;;;4.20;99.90;;;;;;5027549;28;20584;-55
2023/02/19 08:54:39;;;;;;;4.27;1.50;;;4.20;99.90;;;;;;5048131;28;20187;-53
2023/02/19 08:57:05;;;;;;;2.60;1.30;;;4.30;99.90;;;;;;5043049;28;20215;-53
2023/02/19 08:59:32;;;;;;;2.63;1.37;;;4.30;99.90;;;;;;5051986;28;20220;-52
2023/02/19 09:01:59;;;;;;;5.90;1.43;;;4.50;99.90;;;;;;5050525;28;20206;-52
2023/02/19 09:04:26;;;;;;;3.63;2.03;;;4.60;99.90;;;;;;5049052;28;20782;-55
2023/02/19 09:06:55;;;;;;;5.97;1.17;;;4.60;99.90;;;;;;5032596;28;20214;-51
2023/02/19 09:09:21;;;;;;;6.63;1.47;;;4.80;99.90;;;;;;5052675;28;20222;-54
2023/02/19 09:11:49;;;;;;;3.43;1.00;;;4.80;99.90;;;;;;5046750;28;21077;-49
2023/02/19 09:14:15;;;;;;;5.20;1.40;;;4.90;99.90;;;;;;5056998;28;20233;-54
2023/02/19 09:16:42;;;;;;;3.53;0.90;;;4.80;99.90;;;;;;5054978;28;20213;-53
2023/02/19 09:19:09;;;;;;;4.97;1.10;;;4.90;99.90;;;;;;5057769;28;20589;-53
2023/02/19 09:21:36;;;;;;;4.17;1.40;;;5.00;99.90;;;;;;5047174;28;21419;-50
2023/02/19 09:24:05;;;;;;;4.20;1.20;;;5.10;99.90;;;;;;5038016;28;20210;-54
2023/02/19 09:26:31;;;;;;;4.63;1.00;;;5.20;99.90;;;;;;5046913;28;20211;-53
2023/02/19 09:28:58;;;;;;;2.63;1.00;;;5.30;99.90;;;;;;5048412;28;20223;-53
2023/02/19 09:31:25;;;;;;;2.10;0.80;;;5.40;99.90;;;;;;5052679;28;20691;-53
2023/02/19 09:33:52;;;;;;;5.17;1.07;;;5.40;99.90;;;;;;5038354;28;20701;-52
2023/02/19 09:36:19;;;;;;;2.90;1.20;;;5.50;99.90;;;;;;5046089;28;20214;-57
2023/02/19 09:38:46;;;;;;;5.23;0.90;;;5.50;99.90;;;;;;5037451;28;20226;-50
2023/02/19 09:41:21;;;;;;;6.47;1.23;;;5.50;99.90;;;;;;5051687;28;20717;-54
2023/02/19 09:43:48;;;;;;;3.00;1.03;;;5.70;99.90;;;;;;5023954;28;23029;-53
2023/02/19 09:46:24;;;;;;;4.23;0.97;;;5.80;99.90;;;;;;5047044;28;20196;-53
2023/02/19 09:48:53;;;;;;;4.60;0.90;;;5.80;99.90;;;;;;5035770;28;20223;-54
2023/02/19 09:51:20;;;;;;;5.33;1.00;;;6.00;99.90;;;;;;5040908;28;20286;-54
2023/02/19 09:53:50;;;;;;;4.63;1.03;;;6.10;99.90;;;;;;5033304;28;20218;-52
2023/02/19 09:56:22;;;;;;;3.37;0.60;;;6.10;99.90;;;;;;5051446;28;20223;-51
2023/02/19 09:58:51;;;;;;;7.17;1.03;;;6.00;99.90;;;;;;5044092;28;21014;-52
2023/02/19 10:01:20;;;;;;;5.30;1.10;;;6.00;99.90;;;;;;5044350;28;20980;-54
2023/02/19 10:03:48;;;;;;;3.40;0.90;;;6.00;99.90;;;;;;5049553;28;20209;-53
2023/02/19 10:06:37;;;;;;;3.40;0.87;;;6.10;99.90;;;;;;5042761;28;20245;-52
2023/02/19 10:09:18;;;;;;;3.70;0.80;;;6.30;99.90;;;;;;5030831;28;20269;-55
2023/02/19 10:11:48;;;;;;;2.33;0.60;;;6.50;99.90;;;;;;5048980;28;20753;-53
2023/02/19 10:14:18;;;;;;;2.07;0.57;;;6.50;99.90;;;;;;5039493;28;21776;-49
2023/02/19 10:16:48;;;;;;;4.87;0.60;;;6.40;99.90;;;;;;5048186;28;20222;-53
2023/02/19 10:19:16;;;;;;;9.30;0.87;;;6.40;99.90;;;;;;5046527;28;20214;-53
2023/02/19 10:21:43;;;;;;;3.17;1.17;;;6.40;99.90;;;;;;5046852;28;20201;-49
2023/02/19 10:24:19;;;;;;;4.33;0.80;;;6.40;99.90;;;;;;5040204;28;20219;-51
2023/02/19 10:26:47;;;;;;;3.77;0.90;;;6.30;99.90;;;;;;5039259;28;20905;-47
2023/02/19 10:29:14;;;;;;;3.43;0.60;;;6.40;99.90;;;;;;5043816;28;20260;-48
2023/02/19 10:31:43;;;;;;;2.63;0.67;;;6.40;99.90;;;;;;5041738;28;20199;-47
2023/02/19 10:34:19;;;;;;;5.07;1.33;;;6.30;99.90;;;;;;5044714;28;20207;-51
2023/02/19 10:36:49;;;;;;;3.20;0.67;;;6.30;99.90;;;;;;5050309;28;20222;-52
2023/02/19 10:39:41;;;;;;;3.27;1.13;;;6.30;99.90;;;;;;5045046;28;20261;-55
2023/02/19 10:42:16;;;;;;;2.03;0.60;;;6.30;99.90;;;;;;5049156;28;20203;-53
2023/02/19 10:44:45;;;;;;;1.70;0.60;;;6.30;99.90;;;;;;5038150;28;21003;-54
2023/02/19 10:47:17;;;;;;;2.57;0.70;;;6.40;99.90;;;;;;5055081;28;20217;-49
2023/02/19 10:49:47;;;;;;;5.03;0.50;;;6.40;99.90;;;;;;5045556;28;20238;-51
2023/02/19 10:52:19;;;;;;;3.93;0.60;;;6.40;99.90;;;;;;5049708;28;20630;-50
2023/02/19 10:54:50;;;;;;;4.13;0.60;;;6.40;99.90;;;;;;5040115;28;20234;-48
2023/02/19 10:57:33;;;;;;;3.30;0.53;;;6.60;99.90;;;;;;5038731;28;20207;-54
2023/02/19 11:00:25;;;;;;;1.27;0.47;;;6.50;99.90;;;;;;5039203;28;20252;-53
2023/02/19 11:03:14;;;;;;;2.37;0.90;;;6.60;99.90;;;;;;5045117;28;20186;-54
2023/02/19 11:05:52;;;;;;;1.27;0.50;;;6.60;99.90;;;;;;5043196;28;20507;-50
2023/02/19 11:08:22;;;;;;;2.47;0.60;;;6.70;99.90;;;;;;5048860;28;20214;-54
2023/02/19 11:10:50;;;;;;;2.47;0.60;;;6.70;99.90;;;;;;5035818;28;20205;-51
2023/02/19 11:13:25;;;;;;;4.27;0.63;;;6.70;99.90;;;;;;5027774;28;20206;-52
2023/02/19 11:15:54;;;;;;;3.00;0.73;;;6.80;99.90;;;;;;5050065;28;20278;-55
2023/02/19 11:18:24;;;;;;;4.17;0.57;;;6.80;99.90;;;;;;5046464;28;20231;-50
2023/02/19 11:20:54;;;;;;;2.17;0.30;;;6.80;99.90;;;;;;5048074;28;20199;-55
2023/02/19 11:23:25;;;;;;;2.23;0.60;;;6.80;99.90;;;;;;5046370;28;20211;-50
2023/02/19 11:25:55;;;;;;;2.07;0.40;;;6.80;99.90;;;;;;5043146;28;20199;-54
2023/02/19 11:28:30;;;;;;;1.17;0.70;;;6.90;99.90;;;;;;5038069;28;20298;-50
2023/02/19 11:31:13;;;;;;;5.33;0.83;;;6.90;99.90;;;;;;5049470;28;20194;-55
2023/02/19 11:33:44;;;;;;;1.87;0.73;;;7.00;99.90;;;;;;5047440;28;20187;-55
2023/02/19 11:36:30;;;;;;;0.93;0.33;;;7.00;99.90;;;;;;5058595;28;20226;-48
2023/02/19 11:38:58;;;;;;;3.10;0.97;;;7.00;99.90;;;;;;5047388;28;20222;-52
2023/02/19 11:41:45;;;;;;;1.63;0.40;;;7.00;99.90;;;;;;5039877;28;20210;-52
2023/02/19 11:44:24;;;;;;;1.60;0.30;;;7.10;99.90;;;;;;5040282;28;20198;-49
2023/02/19 11:47:00;;;;;;;4.10;0.57;;;7.10;99.90;;;;;;5056268;28;20202;-55
2023/02/19 11:49:40;;;;;;;4.97;0.70;;;7.20;99.90;;;;;;5044573;28;20230;-51
2023/02/19 11:52:17;;;;;;;2.40;0.70;;;7.30;99.90;;;;;;5047290;28;20201;-51
2023/02/19 11:54:51;;;;;;;3.97;0.70;;;7.20;99.90;;;;;;5032365;28;20237;-53
2023/02/19 11:57:35;;;;;;;2.37;0.53;;;7.20;99.90;;;;;;5044017;28;20290;-52
2023/02/19 12:00:19;;;;;;;5.17;0.60;;;7.30;99.90;;;;;;5054220;28;20230;-47
2023/02/19 12:03:02;;;;;;;2.53;0.53;;;7.40;99.90;;;;;;5054622;28;20705;-53
2023/02/19 12:05:38;;;;;;;1.37;0.40;;;7.40;99.90;;;;;;5051936;28;20222;-53
2023/02/19 12:08:23;;;;;;;2.90;0.60;;;7.50;99.90;;;;;;5057743;28;20193;-52
2023/02/19 12:11:11;;;;;;;2.03;0.60;;;7.50;99.90;;;;;;5036293;28;20218;-51
2023/02/19 12:13:54;;;;;;;1.47;0.80;;;7.40;99.90;;;;;;5039202;28;20602;-54
2023/02/19 12:16:27;;;;;;;2.17;0.43;;;7.40;99.90;;;;;;5059332;28;20211;-51
2023/02/19 12:19:11;;;;;;;2.53;0.47;;;7.50;99.90;;;;;;5056413;28;20293;-50
2023/02/19 12:21:50;;;;;;;2.10;0.47;;;7.50;99.90;;;;;;5052487;28;20199;-49
2023/02/19 12:24:48;;;;;;;4.37;0.77;;;7.50;99.90;;;;;;5056302;28;20719;-52
2023/02/19 12:27:25;;;;;;;2.93;0.60;;;7.50;99.90;;;;;;5042497;28;20210;-54
2023/02/19 12:30:02;;;;;;;1.57;0.60;;;7.60;99.90;;;;;;5046807;28;20839;-49
2023/02/19 12:32:42;;;;;;;1.93;0.60;;;7.60;99.90;;;;;;5048682;28;20198;-51
2023/02/19 12:35:27;;;;;;;1.13;0.60;;;7.60;99.90;;;;;;5057101;28;20230;-48
2023/02/19 12:38:04;;;;;;;3.13;0.70;;;7.60;99.90;;;;;;5050136;28;20795;-52
2023/02/19 12:40:41;;;;;;;3.93;0.70;;;7.60;99.90;;;;;;5044033;28;20198;-55
2023/02/19 12:43:14;;;;;;;3.50;0.90;;;7.70;99.90;;;;;;5043399;28;20214;-54
2023/02/19 12:45:46;;;;;;;0.93;0.70;;;7.70;99.90;;;;;;5032617;28;20891;-52
2023/02/19 12:48:23;;;;;;;2.40;0.63;;;7.80;99.90;;;;;;5052601;28;20200;-54
2023/02/19 12:50:56;;;;;;;2.20;0.60;;;7.80;99.90;;;;;;5043329;28;20187;-50
2023/02/19 12:53:37;;;;;;;4.10;0.83;;;7.80;99.90;;;;;;5044864;28;20195;-53
2023/02/19 12:56:12;;;;;;;1.60;0.43;;;7.90;99.90;;;;;;5046051;28;20199;-55
2023/02/19 12:58:43;;;;;;;1.73;0.63;;;7.80;99.90;;;;;;5042421;28;20229;-52
2023/02/19 13:01:15;;;;;;;2.10;0.70;;;7.90;99.90;;;;;;5036164;28;20211;-51
2023/02/19 13:03:51;;;;;;;3.80;0.53;;;7.90;99.90;;;;;;5052937;28;20831;-51
2023/02/19 13:06:28;;;;;;;3.70;0.77;;;7.90;99.90;;;;;;5049194;28;20704;-54
2023/02/19 13:08:58;;;;;;;3.07;0.53;;;7.90;99.90;;;;;;5056171;28;20306;-53
2023/02/19 13:11:31;;;;;;;2.53;0.50;;;7.90;99.90;;;;;;5055537;28;20190;-54
2023/02/19 13:14:02;;;;;;;3.83;0.57;;;7.90;99.90;;;;;;5046227;28;21054;-53
2023/02/19 13:16:32;;;;;;;5.10;0.53;;;7.90;99.90;;;;;;5037466;28;20207;-55
2023/02/19 13:19:02;;;;;;;2.40;0.53;;;8.00;99.90;;;;;;5056436;28;20924;-54
2023/02/19 13:24:23;;;;;;;2.07;0.40;;;8.10;99.90;;;;;;5051750;28;20188;-50
2023/02/19 13:27:03;;;;;;;0.83;0.40;;;8.00;99.90;;;;;;5057148;28;20205;-54
2023/02/19 13:29:44;;;;;;;4.47;0.40;;;8.00;99.90;;;;;;5042227;28;20222;-55
2023/02/19 13:32:29;;;;;;;4.47;0.73;;;8.00;99.90;;;;;;5039237;28;20207;-53
2023/02/19 13:35:11;;;;;;;0.87;0.53;;;8.00;99.90;;;;;;5052300;28;20202;-51
2023/02/19 13:37:39;;;;;;;1.77;0.50;;;8.00;99.90;;;;;;5046000;28;20222;-55
2023/02/19 13:40:19;;;;;;;1.53;0.60;;;8.00;99.90;;;;;;5054532;28;20864;-50
2023/02/19 13:42:54;;;;;;;1.30;0.40;;;8.00;99.90;;;;;;5045940;28;20195;-52
2023/02/19 13:45:23;;;;;;;3.57;0.50;;;7.90;99.90;;;;;;5039460;28;20203;-55
2023/02/19 13:48:00;;;;;;;5.43;0.60;;;7.90;99.90;;;;;;5040984;28;20199;-53
2023/02/19 13:50:30;;;;;;;2.50;0.60;;;7.90;99.90;;;;;;5050616;28;20207;-54